sensor_id;sensor_type;location;lat;lon;timestamp;P1;durP1;ratioP1;P2;durP2;ratioP2
50319;SDS011;36226;53.464;9.852;2022-10-28T00:01:06;5.55;;;2.50;;
50319;SDS011;36226;53.464;9.852;2022-10-28T00:03:32;6.93;;;2.70;;
50319;SDS011;36226;53.464;9.852;2022-10-28T00:06:04;6.15;;;2.30;;
50319;SDS011;36226;53.464;9.852;2022-10-28T00:08:31;5.28;;;2.38;;
50319;SDS011;36226;53.464;9.852;2022-10-28T00:11:03;5.45;;;2.60;;
50319;SDS011;36226;53.464;9.852;2022-10-28T00:13:32;8.77;;;2.83;;
50319;SDS011;36226;53.464;9.852;2022-10-28T00:16:04;7.18;;;2.40;;
50319;SDS011;36226;53.464;9.852;2022-10-28T00:18:30;9.55;;;2.85;;
50319;SDS011;36226;53.464;9.852;2022-10-28T00:20:59;6.55;;;2.60;;
50319;SDS011;36226;53.464;9.852;2022-10-28T00:37:26;8.60;;;2.65;;
50319;SDS011;36226;53.464;9.852;2022-10-28T00:39:51;8.10;;;2.33;;
50319;SDS011;36226;53.464;9.852;2022-10-28T00:42:18;9.10;;;2.75;;
50319;SDS011;36226;53.464;9.852;2022-10-28T00:44:54;6.35;;;2.65;;
50319;SDS011;36226;53.464;9.852;2022-10-28T00:50:22;5.95;;;2.60;;
50319;SDS011;36226;53.464;9.852;2022-10-28T00:52:56;7.32;;;2.60;;
50319;SDS011;36226;53.464;9.852;2022-10-28T00:55:24;5.28;;;2.63;;
50319;SDS011;36226;53.464;9.852;2022-10-28T00:57:50;6.43;;;2.85;;
50319;SDS011;36226;53.464;9.852;2022-10-28T01:00:20;6.75;;;2.75;;
50319;SDS011;36226;53.464;9.852;2022-10-28T01:45:16;7.88;;;2.70;;
50319;SDS011;36226;53.464;9.852;2022-10-28T01:47:48;11.23;;;2.35;;
50319;SDS011;36226;53.464;9.852;2022-10-28T01:50:39;8.43;;;2.97;;
50319;SDS011;36226;53.464;9.852;2022-10-28T01:53:05;9.50;;;2.88;;
50319;SDS011;36226;53.464;9.852;2022-10-28T01:55:34;9.45;;;3.05;;
50319;SDS011;36226;53.464;9.852;2022-10-28T01:58:02;8.18;;;2.78;;
50319;SDS011;36226;53.464;9.852;2022-10-28T02:00:29;9.13;;;2.72;;
50319;SDS011;36226;53.464;9.852;2022-10-28T02:19:11;9.77;;;3.58;;
50319;SDS011;36226;53.464;9.852;2022-10-28T02:24:37;6.30;;;2.60;;
50319;SDS011;36226;53.464;9.852;2022-10-28T02:27:11;8.67;;;2.77;;
50319;SDS011;36226;53.464;9.852;2022-10-28T02:29:45;11.73;;;2.80;;
50319;SDS011;36226;53.464;9.852;2022-10-28T02:32:36;8.48;;;2.88;;
50319;SDS011;36226;53.464;9.852;2022-10-28T02:35:03;10.93;;;3.28;;
50319;SDS011;36226;53.464;9.852;2022-10-28T02:37:32;9.48;;;2.72;;
50319;SDS011;36226;53.464;9.852;2022-10-28T02:39:59;7.75;;;2.80;;
50319;SDS011;36226;53.464;9.852;2022-10-28T02:42:27;6.20;;;2.80;;
50319;SDS011;36226;53.464;9.852;2022-10-28T02:44:58;10.65;;;3.17;;
50319;SDS011;36226;53.464;9.852;2022-10-28T02:47:31;8.30;;;2.30;;
50319;SDS011;36226;53.464;9.852;2022-10-28T02:49:59;8.70;;;2.70;;
50319;SDS011;36226;53.464;9.852;2022-10-28T02:52:27;9.25;;;2.60;;
50319;SDS011;36226;53.464;9.852;2022-10-28T02:54:58;10.68;;;2.72;;
50319;SDS011;36226;53.464;9.852;2022-10-28T02:57:25;6.47;;;3.00;;
50319;SDS011;36226;53.464;9.852;2022-10-28T03:00:14;6.80;;;2.80;;
50319;SDS011;36226;53.464;9.852;2022-10-28T03:33:10;7.57;;;2.97;;
50319;SDS011;36226;53.464;9.852;2022-10-28T03:35:36;9.38;;;3.00;;
50319;SDS011;36226;53.464;9.852;2022-10-28T03:38:01;6.07;;;2.78;;
50319;SDS011;36226;53.464;9.852;2022-10-28T03:40:26;7.25;;;3.03;;
50319;SDS011;36226;53.464;9.852;2022-10-28T03:42:52;9.90;;;3.15;;
50319;SDS011;36226;53.464;9.852;2022-10-28T03:45:17;9.98;;;2.97;;
50319;SDS011;36226;53.464;9.852;2022-10-28T03:47:42;7.63;;;2.75;;
50319;SDS011;36226;53.464;9.852;2022-10-28T03:50:08;5.88;;;2.60;;
50319;SDS011;36226;53.464;9.852;2022-10-28T04:45:45;6.93;;;3.70;;
50319;SDS011;36226;53.464;9.852;2022-10-28T04:48:11;10.93;;;3.83;;
50319;SDS011;36226;53.464;9.852;2022-10-28T04:50:36;8.23;;;3.80;;
50319;SDS011;36226;53.464;9.852;2022-10-28T04:53:01;11.07;;;4.15;;
50319;SDS011;36226;53.464;9.852;2022-10-28T04:55:27;8.07;;;3.83;;
50319;SDS011;36226;53.464;9.852;2022-10-28T04:57:56;12.00;;;4.10;;
50319;SDS011;36226;53.464;9.852;2022-10-28T05:00:23;12.00;;;4.53;;
50319;SDS011;36226;53.464;9.852;2022-10-28T05:02:49;9.07;;;4.03;;
50319;SDS011;36226;53.464;9.852;2022-10-28T05:05:14;9.13;;;3.80;;
50319;SDS011;36226;53.464;9.852;2022-10-28T05:07:40;13.25;;;4.20;;
50319;SDS011;36226;53.464;9.852;2022-10-28T05:10:05;12.60;;;4.20;;
50319;SDS011;36226;53.464;9.852;2022-10-28T05:39:03;9.88;;;3.90;;
50319;SDS011;36226;53.464;9.852;2022-10-28T08:21:02;8.90;;;2.80;;
50319;SDS011;36226;53.464;9.852;2022-10-28T08:24:07;5.78;;;2.15;;
50319;SDS011;36226;53.464;9.852;2022-10-28T08:26:35;6.05;;;2.40;;
50319;SDS011;36226;53.464;9.852;2022-10-28T08:29:01;8.18;;;2.60;;
50319;SDS011;36226;53.464;9.852;2022-10-28T08:31:30;12.45;;;3.70;;
50319;SDS011;36226;53.464;9.852;2022-10-28T08:34:04;11.10;;;3.08;;
50319;SDS011;36226;53.464;9.852;2022-10-28T08:36:33;10.65;;;3.08;;
50319;SDS011;36226;53.464;9.852;2022-10-28T08:38:58;11.20;;;2.92;;
50319;SDS011;36226;53.464;9.852;2022-10-28T08:41:32;7.45;;;2.58;;
50319;SDS011;36226;53.464;9.852;2022-10-28T08:44:41;13.90;;;2.85;;
50319;SDS011;36226;53.464;9.852;2022-10-28T08:50:10;10.85;;;2.55;;
50319;SDS011;36226;53.464;9.852;2022-10-28T08:52:57;8.17;;;2.63;;
50319;SDS011;36226;53.464;9.852;2022-10-28T08:55:34;10.30;;;2.33;;
50319;SDS011;36226;53.464;9.852;2022-10-28T08:58:06;10.77;;;2.45;;
50319;SDS011;36226;53.464;9.852;2022-10-28T09:00:33;7.25;;;2.20;;
50319;SDS011;36226;53.464;9.852;2022-10-28T09:05:44;5.88;;;2.20;;
50319;SDS011;36226;53.464;9.852;2022-10-28T09:08:19;9.02;;;2.22;;
50319;SDS011;36226;53.464;9.852;2022-10-28T09:16:06;9.63;;;2.88;;
50319;SDS011;36226;53.464;9.852;2022-10-28T09:18:43;12.30;;;2.70;;
50319;SDS011;36226;53.464;9.852;2022-10-28T09:21:19;10.82;;;2.63;;
50319;SDS011;36226;53.464;9.852;2022-10-28T09:23:52;11.00;;;2.67;;
50319;SDS011;36226;53.464;9.852;2022-10-28T09:29:04;9.50;;;2.93;;
50319;SDS011;36226;53.464;9.852;2022-10-28T09:31:52;10.60;;;2.58;;
50319;SDS011;36226;53.464;9.852;2022-10-28T09:36:54;13.83;;;2.63;;
50319;SDS011;36226;53.464;9.852;2022-10-28T09:39:28;12.02;;;2.63;;
50319;SDS011;36226;53.464;9.852;2022-10-28T09:41:58;8.97;;;2.63;;
50319;SDS011;36226;53.464;9.852;2022-10-28T09:44:41;9.95;;;3.05;;
50319;SDS011;36226;53.464;9.852;2022-10-28T09:47:29;12.73;;;2.57;;
50319;SDS011;36226;53.464;9.852;2022-10-28T09:49:59;10.40;;;2.35;;
50319;SDS011;36226;53.464;9.852;2022-10-28T09:52:28;8.55;;;2.80;;
50319;SDS011;36226;53.464;9.852;2022-10-28T09:54:55;18.77;;;3.03;;
50319;SDS011;36226;53.464;9.852;2022-10-28T09:57:23;7.00;;;2.28;;
50319;SDS011;36226;53.464;9.852;2022-10-28T09:59:51;8.65;;;2.60;;
50319;SDS011;36226;53.464;9.852;2022-10-28T10:02:23;6.85;;;2.47;;
50319;SDS011;36226;53.464;9.852;2022-10-28T10:04:51;10.77;;;2.75;;
50319;SDS011;36226;53.464;9.852;2022-10-28T10:07:22;9.43;;;2.60;;
50319;SDS011;36226;53.464;9.852;2022-10-28T10:09:54;5.78;;;2.55;;
50319;SDS011;36226;53.464;9.852;2022-10-28T10:12:21;5.95;;;2.35;;
50319;SDS011;36226;53.464;9.852;2022-10-28T10:14:48;6.80;;;2.15;;
50319;SDS011;36226;53.464;9.852;2022-10-28T10:17:19;11.15;;;2.85;;
50319;SDS011;36226;53.464;9.852;2022-10-28T10:22:29;7.75;;;2.42;;
50319;SDS011;36226;53.464;9.852;2022-10-28T10:24:58;8.60;;;2.75;;
50319;SDS011;36226;53.464;9.852;2022-10-28T10:27:24;9.88;;;2.35;;
50319;SDS011;36226;53.464;9.852;2022-10-28T10:29:53;12.55;;;2.58;;
50319;SDS011;36226;53.464;9.852;2022-10-28T10:32:31;12.05;;;2.72;;
50319;SDS011;36226;53.464;9.852;2022-10-28T10:34:59;10.07;;;2.97;;
50319;SDS011;36226;53.464;9.852;2022-10-28T10:37:29;7.18;;;2.47;;
50319;SDS011;36226;53.464;9.852;2022-10-28T10:40:48;10.88;;;2.65;;
50319;SDS011;36226;53.464;9.852;2022-10-28T10:42:51;12.35;;;2.70;;
50319;SDS011;36226;53.464;9.852;2022-10-28T10:45:24;9.43;;;2.65;;
50319;SDS011;36226;53.464;9.852;2022-10-28T10:50:34;8.85;;;2.58;;
50319;SDS011;36226;53.464;9.852;2022-10-28T10:53:02;11.45;;;2.40;;
50319;SDS011;36226;53.464;9.852;2022-10-28T10:58:01;11.93;;;4.10;;
50319;SDS011;36226;53.464;9.852;2022-10-28T11:00:29;10.18;;;2.55;;
50319;SDS011;36226;53.464;9.852;2022-10-28T11:02:56;8.45;;;2.80;;
50319;SDS011;36226;53.464;9.852;2022-10-28T11:05:23;8.88;;;2.63;;
50319;SDS011;36226;53.464;9.852;2022-10-28T11:07:49;8.13;;;2.55;;
50319;SDS011;36226;53.464;9.852;2022-10-28T11:10:26;9.02;;;2.30;;
50319;SDS011;36226;53.464;9.852;2022-10-28T11:12:53;8.80;;;3.00;;
50319;SDS011;36226;53.464;9.852;2022-10-28T11:15:29;8.02;;;3.00;;
50319;SDS011;36226;53.464;9.852;2022-10-28T11:17:56;9.60;;;2.70;;
50319;SDS011;36226;53.464;9.852;2022-10-28T11:23:07;8.50;;;2.55;;
50319;SDS011;36226;53.464;9.852;2022-10-28T11:25:42;11.18;;;3.08;;
50319;SDS011;36226;53.464;9.852;2022-10-28T11:42:50;8.63;;;3.08;;
50319;SDS011;36226;53.464;9.852;2022-10-28T12:04:59;7.72;;;2.55;;
50319;SDS011;36226;53.464;9.852;2022-10-28T12:07:33;9.88;;;3.00;;
50319;SDS011;36226;53.464;9.852;2022-10-28T12:10:18;7.05;;;2.38;;
50319;SDS011;36226;53.464;9.852;2022-10-28T12:13:00;11.68;;;2.78;;
50319;SDS011;36226;53.464;9.852;2022-10-28T12:21:06;9.00;;;2.70;;
50319;SDS011;36226;53.464;9.852;2022-10-28T12:23:38;11.55;;;2.63;;
50319;SDS011;36226;53.464;9.852;2022-10-28T12:26:07;12.73;;;2.50;;
50319;SDS011;36226;53.464;9.852;2022-10-28T12:28:40;9.38;;;2.58;;
50319;SDS011;36226;53.464;9.852;2022-10-28T12:31:29;13.38;;;2.85;;
50319;SDS011;36226;53.464;9.852;2022-10-28T12:33:58;10.13;;;2.65;;
50319;SDS011;36226;53.464;9.852;2022-10-28T12:39:12;8.95;;;2.55;;
50319;SDS011;36226;53.464;9.852;2022-10-28T12:42:10;9.65;;;2.85;;
50319;SDS011;36226;53.464;9.852;2022-10-28T12:44:38;10.23;;;2.80;;
50319;SDS011;36226;53.464;9.852;2022-10-28T12:57:37;9.98;;;2.55;;
50319;SDS011;36226;53.464;9.852;2022-10-28T13:00:14;8.48;;;2.53;;
50319;SDS011;36226;53.464;9.852;2022-10-28T13:02:44;8.75;;;2.78;;
50319;SDS011;36226;53.464;9.852;2022-10-28T13:05:20;10.88;;;2.40;;
50319;SDS011;36226;53.464;9.852;2022-10-28T13:07:56;13.57;;;3.17;;
50319;SDS011;36226;53.464;9.852;2022-10-28T13:10:31;11.68;;;2.85;;
50319;SDS011;36226;53.464;9.852;2022-10-28T13:13:10;18.02;;;3.60;;
50319;SDS011;36226;53.464;9.852;2022-10-28T13:18:20;9.87;;;2.90;;
50319;SDS011;36226;53.464;9.852;2022-10-28T13:24:09;7.05;;;2.85;;
50319;SDS011;36226;53.464;9.852;2022-10-28T13:26:53;5.57;;;2.50;;
50319;SDS011;36226;53.464;9.852;2022-10-28T13:29:22;7.85;;;2.75;;
50319;SDS011;36226;53.464;9.852;2022-10-28T13:31:49;8.38;;;2.75;;
50319;SDS011;36226;53.464;9.852;2022-10-28T13:34:16;9.23;;;2.95;;
50319;SDS011;36226;53.464;9.852;2022-10-28T13:36:44;10.40;;;3.20;;
50319;SDS011;36226;53.464;9.852;2022-10-28T13:41:46;6.57;;;2.50;;
50319;SDS011;36226;53.464;9.852;2022-10-28T13:44:21;13.43;;;2.70;;
50319;SDS011;36226;53.464;9.852;2022-10-28T13:51:51;9.45;;;2.78;;
50319;SDS011;36226;53.464;9.852;2022-10-28T13:54:29;11.25;;;2.70;;
50319;SDS011;36226;53.464;9.852;2022-10-28T13:57:19;12.23;;;2.58;;
50319;SDS011;36226;53.464;9.852;2022-10-28T13:59:56;9.93;;;2.83;;
50319;SDS011;36226;53.464;9.852;2022-10-28T14:04:58;10.32;;;2.75;;
50319;SDS011;36226;53.464;9.852;2022-10-28T14:07:25;9.73;;;3.33;;
50319;SDS011;36226;53.464;9.852;2022-10-28T14:09:54;6.72;;;2.60;;
50319;SDS011;36226;53.464;9.852;2022-10-28T14:12:29;10.52;;;3.08;;
50319;SDS011;36226;53.464;9.852;2022-10-28T14:14:59;12.05;;;3.28;;
50319;SDS011;36226;53.464;9.852;2022-10-28T14:17:40;7.20;;;3.08;;
50319;SDS011;36226;53.464;9.852;2022-10-28T14:20:18;8.88;;;3.30;;
50319;SDS011;36226;53.464;9.852;2022-10-28T14:22:47;8.52;;;2.97;;
50319;SDS011;36226;53.464;9.852;2022-10-28T14:33:40;13.57;;;3.25;;
50319;SDS011;36226;53.464;9.852;2022-10-28T14:41:51;9.75;;;2.78;;
50319;SDS011;36226;53.464;9.852;2022-10-28T14:52:41;10.05;;;3.08;;
50319;SDS011;36226;53.464;9.852;2022-10-28T14:55:07;14.70;;;3.17;;
50319;SDS011;36226;53.464;9.852;2022-10-28T14:57:46;10.80;;;3.30;;
50319;SDS011;36226;53.464;9.852;2022-10-28T15:00:14;10.13;;;2.97;;
50319;SDS011;36226;53.464;9.852;2022-10-28T15:02:41;10.40;;;3.10;;
50319;SDS011;36226;53.464;9.852;2022-10-28T15:07:41;8.80;;;3.00;;
50319;SDS011;36226;53.464;9.852;2022-10-28T15:10:18;10.23;;;3.38;;
50319;SDS011;36226;53.464;9.852;2022-10-28T15:12:53;9.27;;;3.17;;
50319;SDS011;36226;53.464;9.852;2022-10-28T15:15:24;12.75;;;2.97;;
50319;SDS011;36226;53.464;9.852;2022-10-28T15:17:51;9.05;;;3.40;;
50319;SDS011;36226;53.464;9.852;2022-10-28T15:22:45;11.82;;;2.85;;
50319;SDS011;36226;53.464;9.852;2022-10-28T15:25:14;12.57;;;3.30;;
50319;SDS011;36226;53.464;9.852;2022-10-28T15:27:42;8.48;;;2.58;;
50319;SDS011;36226;53.464;9.852;2022-10-28T15:30:13;9.05;;;2.85;;
50319;SDS011;36226;53.464;9.852;2022-10-28T15:32:40;13.27;;;3.20;;
50319;SDS011;36226;53.464;9.852;2022-10-28T15:37:50;11.95;;;3.25;;
50319;SDS011;36226;53.464;9.852;2022-10-28T15:40:29;10.07;;;2.92;;
50319;SDS011;36226;53.464;9.852;2022-10-28T15:45:27;11.00;;;2.90;;
50319;SDS011;36226;53.464;9.852;2022-10-28T15:47:54;14.95;;;2.90;;
50319;SDS011;36226;53.464;9.852;2022-10-28T15:50:25;7.40;;;2.88;;
50319;SDS011;36226;53.464;9.852;2022-10-28T15:55:32;11.70;;;3.05;;
50319;SDS011;36226;53.464;9.852;2022-10-28T15:58:00;11.32;;;2.67;;
50319;SDS011;36226;53.464;9.852;2022-10-28T16:00:31;11.73;;;3.92;;
50319;SDS011;36226;53.464;9.852;2022-10-28T16:03:01;10.70;;;2.58;;
50319;SDS011;36226;53.464;9.852;2022-10-28T16:08:04;9.80;;;2.65;;
50319;SDS011;36226;53.464;9.852;2022-10-28T16:10:37;12.48;;;2.90;;
50319;SDS011;36226;53.464;9.852;2022-10-28T16:13:12;9.55;;;3.20;;
50319;SDS011;36226;53.464;9.852;2022-10-28T16:18:19;11.23;;;2.85;;
50319;SDS011;36226;53.464;9.852;2022-10-28T16:20:45;14.82;;;2.80;;
50319;SDS011;36226;53.464;9.852;2022-10-28T16:23:17;7.45;;;2.65;;
50319;SDS011;36226;53.464;9.852;2022-10-28T16:25:43;18.73;;;3.38;;
50319;SDS011;36226;53.464;9.852;2022-10-28T16:28:11;16.70;;;3.20;;
50319;SDS011;36226;53.464;9.852;2022-10-28T16:30:42;11.85;;;2.83;;
50319;SDS011;36226;53.464;9.852;2022-10-28T16:33:08;14.40;;;3.25;;
50319;SDS011;36226;53.464;9.852;2022-10-28T16:35:33;10.57;;;3.15;;
50319;SDS011;36226;53.464;9.852;2022-10-28T16:37:59;9.02;;;3.13;;
50319;SDS011;36226;53.464;9.852;2022-10-28T16:40:24;12.07;;;2.95;;
50319;SDS011;36226;53.464;9.852;2022-10-28T16:42:49;7.65;;;2.90;;
50319;SDS011;36226;53.464;9.852;2022-10-28T16:45:16;9.13;;;2.72;;
50319;SDS011;36226;53.464;9.852;2022-10-28T16:47:42;12.90;;;3.20;;
50319;SDS011;36226;53.464;9.852;2022-10-28T16:50:07;11.13;;;3.08;;
50319;SDS011;36226;53.464;9.852;2022-10-28T16:52:32;13.70;;;3.33;;
50319;SDS011;36226;53.464;9.852;2022-10-28T16:54:58;14.10;;;3.25;;
50319;SDS011;36226;53.464;9.852;2022-10-28T16:57:23;11.13;;;3.45;;
50319;SDS011;36226;53.464;9.852;2022-10-28T16:59:49;10.80;;;3.03;;
50319;SDS011;36226;53.464;9.852;2022-10-28T17:02:18;11.95;;;4.07;;
50319;SDS011;36226;53.464;9.852;2022-10-28T17:04:57;12.35;;;3.53;;
50319;SDS011;36226;53.464;9.852;2022-10-28T17:07:22;10.27;;;3.22;;
50319;SDS011;36226;53.464;9.852;2022-10-28T17:09:48;13.80;;;3.35;;
50319;SDS011;36226;53.464;9.852;2022-10-28T17:12:16;9.57;;;2.92;;
50319;SDS011;36226;53.464;9.852;2022-10-28T17:14:43;13.93;;;3.17;;
50319;SDS011;36226;53.464;9.852;2022-10-28T17:17:09;10.80;;;3.60;;
50319;SDS011;36226;53.464;9.852;2022-10-28T17:19:35;7.78;;;3.47;;
50319;SDS011;36226;53.464;9.852;2022-10-28T17:22:01;12.38;;;5.03;;
50319;SDS011;36226;53.464;9.852;2022-10-28T17:24:26;9.95;;;3.92;;
50319;SDS011;36226;53.464;9.852;2022-10-28T17:26:51;10.50;;;3.60;;
50319;SDS011;36226;53.464;9.852;2022-10-28T17:29:17;11.93;;;3.67;;
50319;SDS011;36226;53.464;9.852;2022-10-28T17:31:42;7.00;;;3.35;;
50319;SDS011;36226;53.464;9.852;2022-10-28T17:34:11;12.88;;;3.97;;
50319;SDS011;36226;53.464;9.852;2022-10-28T17:36:36;11.75;;;3.15;;
50319;SDS011;36226;53.464;9.852;2022-10-28T17:39:01;9.88;;;4.00;;
50319;SDS011;36226;53.464;9.852;2022-10-28T17:41:27;11.13;;;4.07;;
50319;SDS011;36226;53.464;9.852;2022-10-28T17:43:53;12.02;;;4.22;;
50319;SDS011;36226;53.464;9.852;2022-10-28T17:46:18;9.40;;;3.45;;
50319;SDS011;36226;53.464;9.852;2022-10-28T17:48:44;11.07;;;3.33;;
50319;SDS011;36226;53.464;9.852;2022-10-28T17:51:09;13.07;;;4.13;;
50319;SDS011;36226;53.464;9.852;2022-10-28T17:53:34;13.02;;;3.75;;
50319;SDS011;36226;53.464;9.852;2022-10-28T17:56:01;12.35;;;3.33;;
50319;SDS011;36226;53.464;9.852;2022-10-28T17:58:27;13.18;;;4.53;;
50319;SDS011;36226;53.464;9.852;2022-10-28T18:00:59;11.50;;;3.75;;
50319;SDS011;36226;53.464;9.852;2022-10-28T18:03:26;12.40;;;3.92;;
50319;SDS011;36226;53.464;9.852;2022-10-28T18:05:54;16.25;;;4.00;;
50319;SDS011;36226;53.464;9.852;2022-10-28T18:08:19;11.73;;;4.05;;
50319;SDS011;36226;53.464;9.852;2022-10-28T18:10:52;19.52;;;4.10;;
50319;SDS011;36226;53.464;9.852;2022-10-28T18:13:19;11.25;;;3.45;;
50319;SDS011;36226;53.464;9.852;2022-10-28T18:15:45;13.30;;;3.83;;
50319;SDS011;36226;53.464;9.852;2022-10-28T18:18:10;10.98;;;3.95;;
50319;SDS011;36226;53.464;9.852;2022-10-28T18:20:35;10.43;;;3.80;;
50319;SDS011;36226;53.464;9.852;2022-10-28T18:23:01;11.43;;;4.10;;
50319;SDS011;36226;53.464;9.852;2022-10-28T18:25:26;11.25;;;3.60;;
50319;SDS011;36226;53.464;9.852;2022-10-28T18:27:51;10.95;;;3.85;;
50319;SDS011;36226;53.464;9.852;2022-10-28T18:30:17;13.23;;;3.80;;
50319;SDS011;36226;53.464;9.852;2022-10-28T18:32:42;11.88;;;3.97;;
50319;SDS011;36226;53.464;9.852;2022-10-28T18:35:07;12.73;;;4.15;;
50319;SDS011;36226;53.464;9.852;2022-10-28T18:37:33;14.80;;;3.78;;
50319;SDS011;36226;53.464;9.852;2022-10-28T18:39:58;9.20;;;3.42;;
50319;SDS011;36226;53.464;9.852;2022-10-28T18:42:23;10.10;;;3.80;;
50319;SDS011;36226;53.464;9.852;2022-10-28T18:44:49;13.50;;;3.97;;
50319;SDS011;36226;53.464;9.852;2022-10-28T18:47:14;8.77;;;3.90;;
50319;SDS011;36226;53.464;9.852;2022-10-28T18:49:39;14.13;;;4.38;;
50319;SDS011;36226;53.464;9.852;2022-10-28T18:52:05;15.50;;;4.13;;
50319;SDS011;36226;53.464;9.852;2022-10-28T18:54:30;13.35;;;4.10;;
50319;SDS011;36226;53.464;9.852;2022-10-28T18:56:57;12.63;;;4.35;;
50319;SDS011;36226;53.464;9.852;2022-10-28T18:59:25;18.70;;;4.57;;
50319;SDS011;36226;53.464;9.852;2022-10-28T19:01:50;11.20;;;4.47;;
50319;SDS011;36226;53.464;9.852;2022-10-28T19:04:15;14.88;;;4.47;;
50319;SDS011;36226;53.464;9.852;2022-10-28T19:06:41;11.48;;;4.97;;
50319;SDS011;36226;53.464;9.852;2022-10-28T19:09:06;11.80;;;4.47;;
50319;SDS011;36226;53.464;9.852;2022-10-28T19:11:32;10.57;;;4.55;;
50319;SDS011;36226;53.464;9.852;2022-10-28T19:13:59;11.32;;;4.65;;
50319;SDS011;36226;53.464;9.852;2022-10-28T19:16:26;15.57;;;4.90;;
50319;SDS011;36226;53.464;9.852;2022-10-28T19:18:55;13.63;;;4.93;;
50319;SDS011;36226;53.464;9.852;2022-10-28T19:21:22;12.23;;;4.75;;
50319;SDS011;36226;53.464;9.852;2022-10-28T19:23:48;24.40;;;5.45;;
50319;SDS011;36226;53.464;9.852;2022-10-28T19:26:13;15.60;;;5.15;;
50319;SDS011;36226;53.464;9.852;2022-10-28T19:28:39;12.63;;;4.40;;
50319;SDS011;36226;53.464;9.852;2022-10-28T19:31:07;12.05;;;4.82;;
50319;SDS011;36226;53.464;9.852;2022-10-28T19:33:34;15.20;;;4.85;;
50319;SDS011;36226;53.464;9.852;2022-10-28T19:36:03;17.90;;;5.13;;
50319;SDS011;36226;53.464;9.852;2022-10-28T19:38:31;16.70;;;5.35;;
50319;SDS011;36226;53.464;9.852;2022-10-28T19:41:04;17.15;;;5.57;;
50319;SDS011;36226;53.464;9.852;2022-10-28T19:43:34;17.02;;;5.55;;
50319;SDS011;36226;53.464;9.852;2022-10-28T19:46:03;16.35;;;5.47;;
50319;SDS011;36226;53.464;9.852;2022-10-28T19:48:32;13.13;;;4.93;;
50319;SDS011;36226;53.464;9.852;2022-10-28T19:50:58;14.85;;;5.07;;
50319;SDS011;36226;53.464;9.852;2022-10-28T19:53:24;18.23;;;5.32;;
50319;SDS011;36226;53.464;9.852;2022-10-28T19:55:53;17.85;;;5.95;;
50319;SDS011;36226;53.464;9.852;2022-10-28T19:58:22;17.33;;;5.43;;
50319;SDS011;36226;53.464;9.852;2022-10-28T20:00:48;12.75;;;5.78;;
50319;SDS011;36226;53.464;9.852;2022-10-28T20:03:13;12.43;;;5.55;;
50319;SDS011;36226;53.464;9.852;2022-10-28T20:05:38;14.52;;;5.03;;
50319;SDS011;36226;53.464;9.852;2022-10-28T20:08:05;16.90;;;5.45;;
50319;SDS011;36226;53.464;9.852;2022-10-28T20:10:31;13.60;;;5.00;;
50319;SDS011;36226;53.464;9.852;2022-10-28T20:12:56;12.82;;;5.28;;
50319;SDS011;36226;53.464;9.852;2022-10-28T20:15:24;14.63;;;5.38;;
50319;SDS011;36226;53.464;9.852;2022-10-28T20:17:49;15.07;;;5.65;;
50319;SDS011;36226;53.464;9.852;2022-10-28T20:20:15;14.05;;;6.03;;
50319;SDS011;36226;53.464;9.852;2022-10-28T20:22:40;15.60;;;5.88;;
50319;SDS011;36226;53.464;9.852;2022-10-28T20:25:06;19.63;;;5.53;;
50319;SDS011;36226;53.464;9.852;2022-10-28T20:27:32;15.10;;;5.55;;
50319;SDS011;36226;53.464;9.852;2022-10-28T20:29:58;14.70;;;5.80;;
50319;SDS011;36226;53.464;9.852;2022-10-28T20:32:24;16.75;;;5.82;;
50319;SDS011;36226;53.464;9.852;2022-10-28T20:34:50;13.15;;;5.97;;
50319;SDS011;36226;53.464;9.852;2022-10-28T20:37:16;16.90;;;6.03;;
50319;SDS011;36226;53.464;9.852;2022-10-28T20:39:41;15.80;;;6.07;;
50319;SDS011;36226;53.464;9.852;2022-10-28T20:42:06;17.85;;;6.30;;
50319;SDS011;36226;53.464;9.852;2022-10-28T20:44:32;15.18;;;6.30;;
50319;SDS011;36226;53.464;9.852;2022-10-28T20:46:57;15.70;;;6.28;;
50319;SDS011;36226;53.464;9.852;2022-10-28T20:49:22;15.57;;;6.03;;
50319;SDS011;36226;53.464;9.852;2022-10-28T20:51:48;20.08;;;6.57;;
50319;SDS011;36226;53.464;9.852;2022-10-28T20:54:13;17.98;;;6.75;;
50319;SDS011;36226;53.464;9.852;2022-10-28T20:56:39;16.58;;;7.03;;
50319;SDS011;36226;53.464;9.852;2022-10-28T20:59:05;15.43;;;6.65;;
50319;SDS011;36226;53.464;9.852;2022-10-28T21:01:35;17.00;;;5.82;;
50319;SDS011;36226;53.464;9.852;2022-10-28T21:04:03;19.13;;;7.15;;
50319;SDS011;36226;53.464;9.852;2022-10-28T21:06:29;17.38;;;6.43;;
50319;SDS011;36226;53.464;9.852;2022-10-28T21:08:55;16.20;;;6.05;;
50319;SDS011;36226;53.464;9.852;2022-10-28T21:11:21;14.25;;;6.38;;
50319;SDS011;36226;53.464;9.852;2022-10-28T21:14:05;15.63;;;6.55;;
50319;SDS011;36226;53.464;9.852;2022-10-28T21:16:30;16.85;;;6.10;;
50319;SDS011;36226;53.464;9.852;2022-10-28T21:18:56;16.83;;;6.68;;
50319;SDS011;36226;53.464;9.852;2022-10-28T21:21:23;16.88;;;5.72;;
50319;SDS011;36226;53.464;9.852;2022-10-28T21:23:49;12.38;;;5.50;;
50319;SDS011;36226;53.464;9.852;2022-10-28T21:26:14;13.57;;;6.22;;
50319;SDS011;36226;53.464;9.852;2022-10-28T21:28:41;20.63;;;6.18;;
50319;SDS011;36226;53.464;9.852;2022-10-28T21:31:11;14.52;;;5.70;;
50319;SDS011;36226;53.464;9.852;2022-10-28T21:33:38;20.73;;;6.75;;
50319;SDS011;36226;53.464;9.852;2022-10-28T21:36:06;18.73;;;5.70;;
50319;SDS011;36226;53.464;9.852;2022-10-28T21:38:33;14.27;;;5.95;;
50319;SDS011;36226;53.464;9.852;2022-10-28T21:41:00;14.45;;;5.75;;
50319;SDS011;36226;53.464;9.852;2022-10-28T21:43:30;15.63;;;5.63;;
50319;SDS011;36226;53.464;9.852;2022-10-28T21:45:56;14.52;;;5.97;;
50319;SDS011;36226;53.464;9.852;2022-10-28T21:48:22;13.48;;;6.28;;
50319;SDS011;36226;53.464;9.852;2022-10-28T21:50:48;17.60;;;6.32;;
50319;SDS011;36226;53.464;9.852;2022-10-28T21:53:15;12.25;;;5.95;;
50319;SDS011;36226;53.464;9.852;2022-10-28T21:55:40;19.38;;;6.60;;
50319;SDS011;36226;53.464;9.852;2022-10-28T21:58:05;20.42;;;6.35;;
50319;SDS011;36226;53.464;9.852;2022-10-28T22:00:30;14.68;;;5.75;;
50319;SDS011;36226;53.464;9.852;2022-10-28T22:02:56;15.27;;;5.93;;
50319;SDS011;36226;53.464;9.852;2022-10-28T22:05:21;15.65;;;6.57;;
50319;SDS011;36226;53.464;9.852;2022-10-28T22:07:46;16.42;;;6.28;;
50319;SDS011;36226;53.464;9.852;2022-10-28T22:10:12;17.52;;;6.32;;
50319;SDS011;36226;53.464;9.852;2022-10-28T22:12:40;15.52;;;5.90;;
50319;SDS011;36226;53.464;9.852;2022-10-28T22:15:05;14.50;;;5.72;;
50319;SDS011;36226;53.464;9.852;2022-10-28T22:17:31;15.18;;;5.50;;
50319;SDS011;36226;53.464;9.852;2022-10-28T22:19:57;19.55;;;6.45;;
50319;SDS011;36226;53.464;9.852;2022-10-28T22:22:23;18.80;;;5.90;;
50319;SDS011;36226;53.464;9.852;2022-10-28T22:24:50;19.05;;;6.45;;
50319;SDS011;36226;53.464;9.852;2022-10-28T22:27:15;22.83;;;6.30;;
50319;SDS011;36226;53.464;9.852;2022-10-28T22:29:41;15.32;;;5.72;;
50319;SDS011;36226;53.464;9.852;2022-10-28T22:32:15;20.77;;;6.57;;
50319;SDS011;36226;53.464;9.852;2022-10-28T22:34:41;19.05;;;6.30;;
50319;SDS011;36226;53.464;9.852;2022-10-28T22:37:06;17.40;;;6.15;;
50319;SDS011;36226;53.464;9.852;2022-10-28T22:39:32;17.55;;;5.50;;
50319;SDS011;36226;53.464;9.852;2022-10-28T22:41:57;20.48;;;6.20;;
50319;SDS011;36226;53.464;9.852;2022-10-28T22:44:22;16.40;;;5.32;;
50319;SDS011;36226;53.464;9.852;2022-10-28T22:46:48;21.92;;;5.65;;
50319;SDS011;36226;53.464;9.852;2022-10-28T22:49:13;15.13;;;6.18;;
50319;SDS011;36226;53.464;9.852;2022-10-28T22:51:38;18.70;;;5.93;;
50319;SDS011;36226;53.464;9.852;2022-10-28T22:54:03;17.02;;;5.82;;